Time;durP1;ratioP1;P1;durP2;ratioP2;P2;SDS_P1;SDS_P2;PMS_P1;PMS_P2;Temp;Humidity;BMP_temperature;BMP_pressure;BME280_temperature;BME280_humidity;BME280_pressure;Samples;Min_cycle;Max_cycle;Signal;HPM_P1;HPM_P2
2023/07/13 00:00:17;;;;;;;22.77;15.73;;;;;;;-141.97;60.43;47371.09;5114348;28;20719;-86
2023/07/13 00:02:43;;;;;;;22.00;16.50;;;;;;;-141.97;60.47;47538.28;5115617;28;20271;-86
2023/07/13 00:05:10;;;;;;;21.47;16.73;;;;;;;-141.97;60.18;47238.47;5115848;28;20164;-86
2023/07/13 00:07:36;;;;;;;26.55;18.15;;;;;;;-141.97;59.85;47342.25;5114121;28;20169;-87
2023/07/13 00:10:03;;;;;;;31.53;19.53;;;;;;;-141.97;60.31;47353.78;5113447;28;20240;-86
2023/07/13 00:12:35;;;;;;;27.90;19.20;;;;;;;-141.97;60.64;47563.28;5112944;27;20296;-85
2023/07/13 00:15:06;;;;;;;26.20;19.23;;;;;;;-141.97;60.34;47524.84;5115977;28;20184;-86
2023/07/13 00:17:31;;;;;;;26.05;18.08;;;;;;;-141.97;60.28;47336.50;5097175;28;20234;-85
2023/07/13 00:19:58;;;;;;;29.10;19.70;;;;;;;-141.97;60.50;47557.53;5109709;28;20183;-88
2023/07/13 00:22:25;;;;;;;26.40;18.83;;;;;;;-141.97;59.94;47357.63;5112483;28;20674;-88
2023/07/13 00:24:57;;;;;;;22.80;17.93;;;;;;;-141.97;60.01;47240.41;5112320;28;20176;-88
2023/07/13 00:27:26;;;;;;;23.33;17.77;;;;;;;-141.97;59.91;47334.56;5112686;28;20187;-87
2023/07/13 00:29:52;;;;;;;24.38;17.55;;;;;;;-141.97;59.82;47324.97;5111761;28;20190;-87
2023/07/13 00:32:18;;;;;;;26.53;17.70;;;;;;;-141.97;59.67;47292.28;5112401;28;20604;-87
2023/07/13 00:34:43;;;;;;;24.93;17.90;;;;;;;-141.97;59.23;47336.50;5112173;28;20233;-87
2023/07/13 00:37:09;;;;;;;30.02;17.75;;;;;;;-141.97;59.35;47344.19;5108480;27;20187;-87
2023/07/13 00:39:34;;;;;;;24.13;17.85;;;;;;;-141.97;59.14;47392.22;5111657;28;20183;-87
2023/07/13 00:42:01;;;;;;;25.75;18.17;;;;;;;-141.97;59.06;47359.56;5108502;28;20172;-87
2023/07/13 00:44:27;;;;;;;30.13;17.15;;;;;;;-141.97;59.13;47276.91;5105448;27;20237;-86
2023/07/13 00:46:53;;;;;;;28.80;17.38;;;;;;;-141.97;59.09;47298.06;5130777;28;20199;-86
2023/07/13 00:49:21;;;;;;;21.83;17.10;;;;;;;-141.97;58.60;47313.44;5112468;28;20587;-86
2023/07/13 00:52:08;;;;;;;29.83;17.83;;;;;;;-141.97;58.69;47349.94;5110938;28;20207;-86
2023/07/13 00:54:38;;;;;;;20.98;16.23;;;;;;;-141.97;58.67;47338.41;5112522;28;20243;-89
2023/07/13 00:57:07;;;;;;;22.33;16.47;;;;;;;-141.97;58.63;47280.75;5110529;28;20635;-87
2023/07/13 00:59:36;;;;;;;19.70;16.27;;;;;;;-141.97;58.84;47365.31;5110798;28;20203;-87
2023/07/13 01:02:02;;;;;;;20.57;16.40;;;;;;;-141.97;58.82;47592.13;5114978;28;20655;-87
2023/07/13 01:04:28;;;;;;;21.60;15.77;;;;;;;-141.97;58.78;47349.94;5114754;28;20183;-86
2023/07/13 01:06:54;;;;;;;21.35;14.80;;;;;;;-141.97;58.37;47361.47;5114100;28;20179;-87
2023/07/13 01:09:20;;;;;;;20.58;15.30;;;;;;;-141.97;58.63;47250.00;5110563;28;20187;-86
2023/07/13 01:11:46;;;;;;;20.63;15.30;;;;;;;-141.97;57.55;47230.78;5106084;28;20202;-86
2023/07/13 01:14:12;;;;;;;22.58;15.77;;;;;;;-141.97;58.55;47376.84;5092537;28;20195;-86
2023/07/13 01:16:38;;;;;;;19.60;15.30;;;;;;;-141.97;58.87;47403.75;5106011;28;20183;-88
2023/07/13 01:19:14;;;;;;;18.85;14.98;;;;;;;-141.97;58.93;47330.72;5113631;28;20235;-87
2023/07/13 01:21:42;;;;;;;19.57;15.03;;;;;;;-141.97;59.25;47367.25;5110739;28;20179;-87
2023/07/13 01:24:08;;;;;;;19.37;15.17;;;;;;;-141.97;59.01;47321.13;5109999;28;20265;-86
2023/07/13 01:26:34;;;;;;;18.83;14.40;;;;;;;-141.97;58.92;47348.03;5111561;28;20837;-86
2023/07/13 01:28:59;;;;;;;18.77;14.63;;;;;;;-141.97;58.62;47288.44;5113740;28;20179;-86
2023/07/13 01:31:24;;;;;;;18.03;14.13;;;;;;;-141.97;58.36;47353.78;5126080;28;20191;-86
2023/07/13 01:33:50;;;;;;;17.93;14.17;;;;;;;-141.97;58.15;47382.63;5135467;28;21263;-87
2023/07/13 01:36:15;;;;;;;17.73;13.80;;;;;;;-141.97;57.89;47353.78;5137218;28;20174;-85
2023/07/13 01:38:41;;;;;;;17.53;14.23;;;;;;;-141.97;59.06;47521.00;5130625;28;20627;-85
2023/07/13 01:41:07;;;;;;;18.67;15.33;;;;;;;-141.97;59.73;47522.91;5113471;28;20217;-85
2023/07/13 01:43:32;;;;;;;21.50;15.73;;;;;;;-141.97;59.58;47205.81;5112628;28;20191;-86
2023/07/13 01:45:58;;;;;;;19.00;15.00;;;;;;;-141.97;60.19;47484.47;5112812;28;20166;-86
2023/07/13 01:48:23;;;;;;;24.47;15.80;;;;;;;-141.97;59.91;47403.75;5112818;28;20311;-85
2023/07/13 01:50:49;;;;;;;22.93;15.70;;;;;;;-141.97;59.80;47642.09;5111316;28;20175;-85
2023/07/13 01:53:14;;;;;;;21.10;15.80;;;;;;;-141.97;60.23;47155.84;5111090;28;20679;-86
2023/07/13 01:55:40;;;;;;;21.97;16.30;;;;;;;-141.97;60.65;47323.03;5114332;28;20174;-86
2023/07/13 01:58:05;;;;;;;22.37;16.27;;;;;;;-141.97;61.53;47296.13;5113062;28;20696;-87
2023/07/13 02:00:31;;;;;;;20.30;15.60;;;;;;;-141.97;61.28;47615.19;5112766;28;20250;-87
2023/07/13 02:02:57;;;;;;;17.50;15.47;;;;;;;-141.97;61.11;47286.53;5111164;28;20177;-86
2023/07/13 02:05:23;;;;;;;18.83;15.70;;;;;;;-141.97;60.90;47496.00;5112806;28;21659;-87
2023/07/13 02:07:49;;;;;;;22.97;15.83;;;;;;;-141.97;60.74;47592.13;5110675;28;20175;-87
2023/07/13 02:10:14;;;;;;;18.93;15.27;;;;;;;-141.97;60.64;47407.59;5110720;28;20181;-87
2023/07/13 02:12:41;;;;;;;18.73;15.03;;;;;;;-141.97;60.93;47496.00;5113820;28;20270;-85
2023/07/13 02:15:07;;;;;;;19.87;15.63;;;;;;;-141.97;61.26;47273.06;5112776;28;20159;-85
2023/07/13 02:17:34;;;;;;;16.80;14.63;;;;;;;-141.97;62.04;47376.84;5112200;28;20553;-86
2023/07/13 02:20:00;;;;;;;18.70;15.30;;;;;;;-141.97;62.20;47298.06;5112368;28;20619;-86
2023/07/13 02:22:25;;;;;;;19.23;16.00;;;;;;;-141.97;62.49;47178.91;5111987;28;20171;-86
2023/07/13 02:24:50;;;;;;;17.87;15.43;;;;;;;-141.97;62.92;47161.59;5111948;28;20192;-85
2023/07/13 02:27:16;;;;;;;19.70;16.40;;;;;;;-141.97;62.69;47157.75;5112253;28;20183;-86
2023/07/13 02:29:41;;;;;;;17.47;15.23;;;;;;;-141.97;62.86;47371.09;5112039;28;20198;-86
2023/07/13 02:32:07;;;;;;;20.57;15.80;;;;;;;-141.97;62.78;47292.28;5113169;28;20286;-85
2023/07/13 02:34:33;;;;;;;19.90;15.70;;;;;;;-141.97;62.83;47403.75;5115421;28;20159;-86
2023/07/13 02:36:58;;;;;;;18.33;15.37;;;;;;;-141.97;62.67;47415.28;5116131;28;20167;-85
2023/07/13 02:39:24;;;;;;;17.97;14.77;;;;;;;-141.97;62.71;47426.81;5115796;28;20160;-85
2023/07/13 02:41:49;;;;;;;20.17;15.30;;;;;;;-141.97;62.95;47236.56;5115714;28;20514;-85
2023/07/13 02:44:15;;;;;;;19.27;15.13;;;;;;;-141.97;63.89;47572.91;5115706;28;20187;-84
2023/07/13 02:46:40;;;;;;;17.87;14.63;;;;;;;-141.97;63.82;47405.69;5115702;28;20296;-85
2023/07/13 02:49:06;;;;;;;18.00;14.93;;;;;;;-141.97;63.94;47290.38;5115496;28;20732;-87
2023/07/13 02:51:33;;;;;;;17.27;14.93;;;;;;;-141.97;63.53;47326.88;5114074;28;20195;-87
2023/07/13 02:54:00;;;;;;;18.10;14.87;;;;;;;-141.97;63.29;47407.59;5115141;27;20163;-86
2023/07/13 02:56:28;;;;;;;19.87;14.83;;;;;;;-141.97;62.97;47342.25;5114802;28;20687;-84
2023/07/13 02:58:54;;;;;;;17.73;15.03;;;;;;;-141.97;63.50;47373.00;5115411;28;20167;-85
2023/07/13 03:01:21;;;;;;;17.50;14.47;;;;;;;-141.97;63.56;47419.13;5115077;28;20643;-86
2023/07/13 03:03:47;;;;;;;18.90;15.50;;;;;;;-141.97;63.65;47323.03;5115297;28;20232;-86
2023/07/13 03:06:13;;;;;;;18.97;14.93;;;;;;;-141.97;63.70;47544.06;5114933;28;20619;-86
2023/07/13 03:08:39;;;;;;;18.20;14.50;;;;;;;-141.97;63.21;47376.84;5115173;27;20238;-86
2023/07/13 03:11:08;;;;;;;19.67;14.37;;;;;;;-141.97;62.48;47369.16;5114326;28;20281;-86
2023/07/13 03:13:34;;;;;;;18.97;14.77;;;;;;;-141.97;62.01;47290.38;5115511;28;20160;-86
2023/07/13 03:15:59;;;;;;;17.70;14.03;;;;;;;-141.97;61.80;47651.69;5115154;28;20175;-88
2023/07/13 03:18:27;;;;;;;19.13;14.20;;;;;;;-141.97;62.00;47405.69;5120384;28;20170;-86
2023/07/13 03:20:52;;;;;;;18.33;14.30;;;;;;;-141.97;62.47;47515.22;5131922;28;20159;-86
2023/07/13 03:23:18;;;;;;;21.57;14.63;;;;;;;-141.97;62.32;47250.00;5115316;28;20557;-86
2023/07/13 03:25:44;;;;;;;23.03;14.60;;;;;;;-141.97;62.20;47472.94;5117964;28;20174;-86
2023/07/13 03:28:11;;;;;;;19.30;14.30;;;;;;;-141.97;61.84;47615.19;5115315;28;20242;-86
2023/07/13 03:30:37;;;;;;;21.63;14.53;;;;;;;-141.97;62.80;47478.72;5113892;28;20163;-85
2023/07/13 03:33:02;;;;;;;19.80;14.50;;;;;;;-141.97;63.62;47223.09;5115026;28;20168;-86
2023/07/13 03:35:28;;;;;;;28.10;14.90;;;;;;;-141.97;63.50;47417.22;5114692;28;20160;-87
2023/07/13 03:37:53;;;;;;;30.87;14.60;;;;;;;-141.97;62.75;47638.25;5114904;28;20246;-87
2023/07/13 03:40:20;;;;;;;29.23;15.07;;;;;;;-141.97;62.87;47173.13;5115967;28;20156;-88
2023/07/13 03:42:46;;;;;;;26.30;15.47;;;;;;;-141.97;63.17;47411.44;5115987;28;20592;-88
2023/07/13 03:45:11;;;;;;;29.83;15.03;;;;;;;-141.97;63.60;47449.88;5113442;28;20163;-88
2023/07/13 03:47:37;;;;;;;23.60;15.00;;;;;;;-141.97;63.17;47265.38;5115144;28;20167;-87
2023/07/13 03:50:03;;;;;;;26.10;15.27;;;;;;;-141.97;62.81;47250.00;5114972;28;20172;-87
2023/07/13 03:52:28;;;;;;;19.17;15.17;;;;;;;-141.97;62.61;47421.06;5113368;28;20203;-85
2023/07/13 03:54:54;;;;;;;21.57;15.13;;;;;;;-141.97;62.53;47203.88;5113201;28;20167;-88
2023/07/13 03:57:19;;;;;;;21.43;14.93;;;;;;;-141.97;63.04;47269.22;5121399;28;20194;-88
2023/07/13 03:59:45;;;;;;;18.80;15.50;;;;;;;-141.97;63.30;47428.75;5134301;28;20151;-88
2023/07/13 04:02:10;;;;;;;22.77;15.27;;;;;;;-141.97;63.27;47357.63;5134552;28;20231;-88
2023/07/13 04:04:36;;;;;;;22.07;15.50;;;;;;;-141.97;62.54;47644.00;5132574;28;20174;-88
2023/07/13 04:07:01;;;;;;;25.23;17.97;;;;;;;-141.97;62.61;47326.88;5116144;28;20178;-88
2023/07/13 04:09:27;;;;;;;25.27;19.23;;;;;;;-141.97;63.68;47317.28;5113756;28;20178;-87
2023/07/13 04:11:52;;;;;;;25.70;18.40;;;;;;;-141.97;63.61;47374.94;5114315;28;20221;-87
2023/07/13 04:14:17;;;;;;;24.07;17.40;;;;;;;-141.97;62.95;47396.06;5113513;28;20234;-87
2023/07/13 04:16:43;;;;;;;23.33;17.73;;;;;;;-141.97;62.78;47367.25;5113472;28;20627;-87
2023/07/13 04:19:10;;;;;;;24.90;17.23;;;;;;;-141.97;62.72;47417.22;5112727;28;20182;-87
2023/07/13 04:21:36;;;;;;;22.77;16.63;;;;;;;-141.97;62.93;47467.19;5113219;28;20635;-87
2023/07/13 04:24:02;;;;;;;21.83;17.13;;;;;;;-141.97;63.02;47192.34;5116042;28;20159;-86
2023/07/13 04:26:29;;;;;;;27.30;18.60;;;;;;;-141.97;62.73;47205.81;5113912;28;20163;-87
2023/07/13 04:28:55;;;;;;;25.07;17.90;;;;;;;-141.97;61.94;47422.97;5117211;28;20642;-86
2023/07/13 04:31:23;;;;;;;24.30;17.43;;;;;;;-141.97;61.48;47449.88;5116419;28;20252;-87
2023/07/13 04:33:50;;;;;;;25.80;17.60;;;;;;;-141.97;61.38;47449.88;5116621;28;20164;-86
2023/07/13 04:36:16;;;;;;;24.70;18.17;;;;;;;-141.97;61.16;47388.38;5114044;28;20159;-85
2023/07/13 04:38:42;;;;;;;21.73;17.07;;;;;;;-141.97;60.22;47461.41;5113602;28;20166;-87
2023/07/13 04:41:08;;;;;;;24.50;18.10;;;;;;;-141.97;59.84;47259.63;5113158;28;20305;-86
2023/07/13 04:43:34;;;;;;;24.40;17.87;;;;;;;-141.97;59.85;47317.28;5114766;28;20167;-87
2023/07/13 04:46:05;;;;;;;30.23;18.23;;;;;;;-141.97;58.91;47407.59;5113417;28;20171;-86
2023/07/13 04:48:31;;;;;;;28.10;18.00;;;;;;;-141.97;59.03;47544.06;5120807;28;20280;-87
2023/07/13 04:50:58;;;;;;;27.17;18.45;;;;;;;-141.97;58.44;47323.03;5122233;28;20167;-87
2023/07/13 04:53:23;;;;;;;29.37;18.97;;;;;;;-141.97;57.95;47213.50;5113623;28;20239;-89
2023/07/13 04:55:49;;;;;;;28.65;18.88;;;;;;;-141.97;57.20;47515.22;5113197;28;20159;-85
2023/07/13 04:58:14;;;;;;;30.10;18.85;;;;;;;-141.97;56.64;47376.84;5112913;28;20164;-86
2023/07/13 05:00:40;;;;;;;24.77;18.02;;;;;;;-141.97;56.28;47176.97;5112731;28;20620;-85
2023/07/13 05:03:05;;;;;;;25.15;18.38;;;;;;;-141.97;56.08;47244.25;5112886;28;20621;-86
2023/07/13 05:05:31;;;;;;;25.15;18.73;;;;;;;-141.97;55.91;47392.22;5112766;28;20170;-85
2023/07/13 05:07:56;;;;;;;25.13;18.98;;;;;;;-141.97;55.62;47192.34;5112509;28;20260;-86
2023/07/13 05:10:23;;;;;;;25.90;19.05;;;;;;;-141.97;55.36;47388.38;5112617;28;20626;-87
2023/07/13 05:12:48;;;;;;;26.25;18.90;;;;;;;-141.97;55.67;47607.50;5112913;28;20582;-87
2023/07/13 05:15:14;;;;;;;25.33;18.40;;;;;;;-141.97;55.52;47392.22;5111105;28;20182;-86
2023/07/13 05:17:40;;;;;;;26.33;19.25;;;;;;;-141.97;55.51;47369.16;5111152;28;20230;-87
2023/07/13 05:20:07;;;;;;;25.30;18.75;;;;;;;-141.97;54.91;47544.06;5112213;28;20228;-86
2023/07/13 05:22:34;;;;;;;23.50;17.75;;;;;;;-141.97;54.59;47361.47;5112765;28;20172;-80
2023/07/13 05:25:00;;;;;;;24.45;18.33;;;;;;;-141.97;54.33;47380.69;5112593;27;20171;-80
2023/07/13 05:27:25;;;;;;;25.67;17.42;;;;;;;-141.97;55.32;47367.25;5112768;28;20174;-81
2023/07/13 05:29:51;;;;;;;25.17;18.60;;;;;;;-141.97;55.19;47365.31;5111676;28;20655;-80
2023/07/13 05:32:17;;;;;;;25.48;18.10;;;;;;;-141.97;55.32;47384.53;5113125;28;20244;-80
2023/07/13 05:34:43;;;;;;;21.92;18.20;;;;;;;-141.97;54.37;47376.84;5112255;28;20167;-80
2023/07/13 05:37:08;;;;;;;22.55;17.30;;;;;;;-141.97;54.28;47365.31;5112259;28;20202;-80
2023/07/13 05:39:34;;;;;;;23.27;17.52;;;;;;;-141.97;53.47;47392.22;5112123;28;20173;-80
2023/07/13 05:41:59;;;;;;;21.35;17.00;;;;;;;-141.97;53.38;47392.22;5112344;28;20170;-80
2023/07/13 05:44:24;;;;;;;24.55;18.23;;;;;;;-141.97;53.77;47382.63;5111762;28;20167;-80
2023/07/13 05:46:50;;;;;;;23.30;17.67;;;;;;;-141.97;53.06;47369.16;5111945;28;20167;-80
2023/07/13 05:49:15;;;;;;;22.20;16.73;;;;;;;-141.97;52.99;47384.53;5111823;28;20170;-79
2023/07/13 05:51:41;;;;;;;26.10;17.27;;;;;;;-141.97;52.09;47346.09;5111531;28;20241;-79
2023/07/13 05:54:06;;;;;;;22.45;17.05;;;;;;;-141.97;51.20;47371.09;5088727;28;20280;-79
2023/07/13 05:56:31;;;;;;;20.83;16.45;;;;;;;-141.97;51.53;47363.41;5108455;28;20188;-79
2023/07/13 05:58:57;;;;;;;21.70;16.40;;;;;;;-141.97;51.39;47376.84;5092953;28;20331;-79
2023/07/13 06:01:23;;;;;;;26.27;16.73;;;;;;;-141.97;50.64;47365.31;5105159;28;20227;-78
2023/07/13 06:03:49;;;;;;;29.08;16.75;;;;;;;-141.97;49.71;47330.72;5089715;28;20570;-79
2023/07/13 06:06:15;;;;;;;26.00;16.70;;;;;;;-141.97;48.95;47349.94;5094963;28;20275;-78
2023/07/13 06:08:40;;;;;;;19.27;17.20;;;;;;;-141.97;48.55;47353.78;5097683;27;20252;-80
2023/07/13 06:11:18;;;;;;;23.55;17.95;;;;;;;-141.97;47.54;47367.25;5103543;28;20642;-79
2023/07/13 06:13:44;;;;;;;21.40;17.30;;;;;;;-141.97;47.48;47267.31;5092890;28;20602;-79
2023/07/13 06:16:10;;;;;;;21.70;17.60;;;;;;;-141.97;46.53;47353.78;5109463;28;20183;-78
2023/07/13 06:18:37;;;;;;;20.67;16.35;;;;;;;-141.97;46.94;47278.84;5113149;27;20644;-78
2023/07/13 06:21:09;;;;;;;20.75;16.75;;;;;;;-141.97;46.61;47348.03;5112144;28;20187;-78
2023/07/13 06:23:35;;;;;;;23.65;16.27;;;;;;;-141.97;46.07;47323.03;5114303;28;20621;-78
2023/07/13 06:26:00;;;;;;;18.75;15.63;;;;;;;-141.97;44.49;47309.59;5115057;28;20210;-79
2023/07/13 06:28:26;;;;;;;20.63;15.20;;;;;;;-141.97;44.63;47324.97;5130102;28;20175;-80
2023/07/13 06:30:51;;;;;;;19.27;15.60;;;;;;;-141.97;44.33;47328.81;5126091;28;20190;-79
2023/07/13 06:33:17;;;;;;;17.33;15.00;;;;;;;-141.97;43.96;47311.50;5118085;27;20275;-79
2023/07/13 06:35:42;;;;;;;19.65;15.15;;;;;;;-141.97;43.34;47326.88;5111365;28;20191;-79
2023/07/13 06:38:08;;;;;;;21.65;14.63;;;;;;;-141.97;42.57;47296.13;5114050;28;20190;-78
2023/07/13 06:40:33;;;;;;;25.95;15.10;;;;;;;-141.97;42.48;47326.88;5113387;28;20205;-79
2023/07/13 06:42:59;;;;;;;19.50;14.10;;;;;;;-141.97;42.55;47299.97;5112671;28;20242;-81
2023/07/13 06:45:24;;;;;;;24.05;15.10;;;;;;;-141.97;42.50;47319.19;5113238;28;21050;-78
2023/07/13 06:47:49;;;;;;;19.20;14.85;;;;;;;-141.97;41.85;47319.19;5112488;28;20546;-78
2023/07/13 06:50:15;;;;;;;18.55;14.57;;;;;;;-141.97;41.68;47305.75;5114467;28;20638;-79
2023/07/13 06:52:40;;;;;;;17.75;14.15;;;;;;;-141.97;41.66;47292.28;5115069;28;20228;-78
2023/07/13 06:55:06;;;;;;;19.08;14.25;;;;;;;-141.97;41.96;47307.66;5112766;28;20182;-78
2023/07/13 06:57:31;;;;;;;19.42;14.82;;;;;;;-141.97;41.70;47319.19;5112269;28;20190;-77
2023/07/13 06:59:57;;;;;;;16.75;14.50;;;;;;;-141.97;40.40;47265.38;5110975;28;20198;-78
2023/07/13 07:02:22;;;;;;;17.65;14.85;;;;;;;-141.97;39.76;47248.09;5111599;28;20317;-78
2023/07/13 07:04:48;;;;;;;17.75;14.18;;;;;;;-141.97;38.92;47321.13;5111395;28;20175;-77
2023/07/13 07:07:13;;;;;;;16.27;14.13;;;;;;;-141.97;39.30;47255.78;5112254;28;20266;-77
2023/07/13 07:09:39;;;;;;;15.18;13.57;;;;;;;-141.97;39.37;47369.16;5099467;27;20231;-79
2023/07/13 07:12:04;;;;;;;15.85;13.77;;;;;;;-141.97;39.09;47259.63;5112284;28;20199;-79
2023/07/13 07:14:30;;;;;;;18.30;14.38;;;;;;;-141.97;38.90;47253.84;5111067;28;20183;-78
2023/07/13 07:16:56;;;;;;;16.30;13.70;;;;;;;-141.97;38.79;47309.59;5111434;28;20663;-79
2023/07/13 07:19:21;;;;;;;16.85;15.05;;;;;;;-141.97;38.03;47284.59;5110241;28;20239;-78
2023/07/13 07:21:46;;;;;;;17.40;14.00;;;;;;;-141.97;38.88;47282.69;5111434;28;20175;-78
2023/07/13 07:24:12;;;;;;;18.90;14.70;;;;;;;-141.97;39.02;47257.69;5112336;28;20584;-77
2023/07/13 07:26:37;;;;;;;19.23;14.48;;;;;;;-141.97;38.81;47269.22;5112544;28;20255;-78
2023/07/13 07:29:03;;;;;;;16.15;13.35;;;;;;;-141.97;37.86;47244.25;5112842;27;20232;-78
2023/07/13 07:31:28;;;;;;;16.08;13.43;;;;;;;-141.97;37.60;47376.84;5110992;28;20225;-79
2023/07/13 07:33:54;;;;;;;17.95;13.23;;;;;;;-141.97;38.58;47234.63;5109821;28;20672;-78
2023/07/13 07:36:19;;;;;;;16.13;14.43;;;;;;;-141.97;38.18;47273.06;5105242;28;20196;-78
2023/07/13 07:38:44;;;;;;;16.00;13.32;;;;;;;-141.97;37.70;47213.50;5090297;28;20625;-79
2023/07/13 07:41:10;;;;;;;14.73;13.15;;;;;;;-141.97;37.73;47305.75;5106309;28;20178;-78
2023/07/13 07:43:36;;;;;;;16.23;13.55;;;;;;;-141.97;38.75;47269.22;5111791;28;20183;-77
2023/07/13 07:46:02;;;;;;;15.40;12.52;;;;;;;-141.97;37.76;47309.59;5111556;28;20218;-79
2023/07/13 07:48:27;;;;;;;14.93;13.20;;;;;;;-141.97;36.98;47257.69;5112531;28;20267;-78
2023/07/13 07:50:53;;;;;;;17.77;13.32;;;;;;;-141.97;37.21;47234.63;5112134;28;20262;-78
2023/07/13 07:53:18;;;;;;;16.80;13.48;;;;;;;-141.97;36.74;47221.19;5113295;28;20558;-78
2023/07/13 07:55:45;;;;;;;15.15;13.00;;;;;;;-141.97;36.51;47219.25;5111090;28;20604;-77
2023/07/13 07:58:10;;;;;;;16.40;13.32;;;;;;;-141.97;36.75;47242.31;5110704;28;20580;-78
2023/07/13 08:00:35;;;;;;;16.33;13.77;;;;;;;-141.97;36.64;47255.78;5110026;28;20195;-78
2023/07/13 08:03:02;;;;;;;15.85;12.75;;;;;;;-141.97;36.88;47248.09;5110836;28;20183;-77
2023/07/13 08:05:28;;;;;;;16.05;13.27;;;;;;;-141.97;37.11;47232.72;5110599;28;20187;-78
2023/07/13 08:07:53;;;;;;;15.30;13.40;;;;;;;-141.97;37.54;47290.38;5109915;28;20190;-77
2023/07/13 08:10:19;;;;;;;16.58;13.48;;;;;;;-141.97;36.21;47384.53;5101626;28;21038;-78
2023/07/13 08:12:45;;;;;;;14.63;13.10;;;;;;;-141.97;35.98;47226.94;5110171;28;20213;-77
2023/07/13 08:15:13;;;;;;;17.05;13.95;;;;;;;-141.97;36.33;47234.63;5109996;28;20180;-78
2023/07/13 08:17:38;;;;;;;15.55;13.75;;;;;;;-141.97;35.66;47223.09;5111056;27;20179;-78
2023/07/13 08:20:04;;;;;;;15.20;12.80;;;;;;;-141.97;35.58;47192.34;5110245;28;20194;-78
2023/07/13 08:22:30;;;;;;;17.05;12.90;;;;;;;-141.97;34.99;47194.28;5109686;28;20186;-78
2023/07/13 08:24:55;;;;;;;15.10;12.73;;;;;;;-141.97;34.53;47203.88;5110536;28;20270;-78
2023/07/13 08:27:22;;;;;;;14.80;13.30;;;;;;;-141.97;34.64;47238.47;5109808;28;20939;-79
2023/07/13 08:29:48;;;;;;;17.08;12.80;;;;;;;-141.97;34.88;47213.50;5109460;28;20186;-78
2023/07/13 08:32:14;;;;;;;14.18;12.77;;;;;;;-141.97;33.81;47186.59;5108954;28;20214;-79
2023/07/13 08:34:40;;;;;;;28.90;13.65;;;;;;;-141.97;33.28;47128.94;5110000;28;20171;-79
2023/07/13 08:37:06;;;;;;;45.38;14.93;;;;;;;-141.97;33.23;47194.28;5109116;28;20225;-78
2023/07/13 08:39:33;;;;;;;15.93;13.20;;;;;;;-141.97;34.01;47184.66;5110473;28;20703;-79
2023/07/13 08:42:12;;;;;;;18.25;13.55;;;;;;;-141.97;33.64;47178.91;5111412;28;20608;-78
2023/07/13 08:45:19;;;;;;;20.35;13.05;;;;;;;-141.97;33.00;47194.28;5110915;28;20270;-78
2023/07/13 08:47:52;;;;;;;16.27;12.52;;;;;;;-141.97;32.54;47136.63;5103185;28;20682;-76
2023/07/13 08:50:22;;;;;;;14.77;12.45;;;;;;;-141.97;32.44;47175.06;5088025;28;20254;-78
2023/07/13 08:52:48;;;;;;;18.60;11.82;;;;;;;-141.97;32.23;47134.69;5093976;28;20231;-78
2023/07/13 08:55:25;;;;;;;12.57;11.27;;;;;;;-141.97;31.73;47161.59;5090835;28;20771;-78
2023/07/13 08:58:09;;;;;;;17.48;11.15;;;;;;;-141.97;30.97;47084.72;5088078;28;20203;-77
2023/07/13 09:01:00;;;;;;;14.27;10.82;;;;;;;-141.97;30.60;47127.00;5086715;28;20190;-77
2023/07/13 09:03:33;;;;;;;14.00;10.75;;;;;;;-141.97;30.82;47236.56;5087050;28;20694;-76
2023/07/13 09:06:02;;;;;;;15.52;10.63;;;;;;;-141.97;30.69;47150.06;5088301;28;20349;-77
2023/07/13 09:08:42;;;;;;;11.50;10.30;;;;;;;-141.97;30.14;47140.47;5077650;28;20889;-77
2023/07/13 09:11:19;;;;;;;11.85;10.18;;;;;;;-141.97;30.21;47138.53;5087531;28;20602;-77
2023/07/13 09:14:30;;;;;;;13.23;10.30;;;;;;;-141.97;30.12;47184.66;5084422;28;20188;-78
2023/07/13 09:16:56;;;;;;;15.05;9.82;;;;;;;-141.97;29.84;47175.06;5087246;28;20347;-77
2023/07/13 09:19:28;;;;;;;12.85;9.93;;;;;;;-141.97;29.68;47150.06;5086608;28;20279;-77
2023/07/13 09:21:56;;;;;;;17.77;9.95;;;;;;;-141.97;29.24;47167.38;5085563;28;20225;-77
2023/07/13 09:24:41;;;;;;;13.20;10.77;;;;;;;-141.97;29.17;47073.19;5086733;28;20655;-78
2023/07/13 09:27:20;;;;;;;10.95;9.38;;;;;;;-141.97;28.56;47121.25;5089412;28;21095;-78
2023/07/13 09:29:51;;;;;;;10.38;9.20;;;;;;;-141.97;29.14;47138.53;5105712;28;20832;-77
2023/07/13 09:32:22;;;;;;;13.52;10.60;;;;;;;-141.97;28.76;47117.41;5105127;28;20210;-77
2023/07/13 09:34:55;;;;;;;11.52;9.90;;;;;;;-141.97;29.22;47102.03;5108741;28;20179;-78
2023/07/13 09:37:28;;;;;;;12.77;9.73;;;;;;;-141.97;28.91;47092.41;5108248;28;20555;-78
2023/07/13 09:39:55;;;;;;;10.63;9.50;;;;;;;-141.97;28.65;47111.63;5108726;28;20812;-78
2023/07/13 09:42:23;;;;;;;11.30;9.68;;;;;;;-141.97;28.26;47100.09;5108682;28;20218;-77
2023/07/13 09:44:52;;;;;;;13.18;9.27;;;;;;;-141.97;28.10;47109.72;5110866;28;20562;-77
2023/07/13 09:47:26;;;;;;;10.63;9.05;;;;;;;-141.97;28.77;47119.31;5114971;28;20240;-78
2023/07/13 09:49:55;;;;;;;13.30;9.20;;;;;;;-141.97;28.35;47157.75;5110049;28;20179;-79
2023/07/13 09:52:21;;;;;;;12.65;8.73;;;;;;;-141.97;27.93;47175.06;5109794;28;20706;-77
2023/07/13 09:54:49;;;;;;;12.05;8.77;;;;;;;-141.97;27.16;47073.19;5105383;28;20194;-78
2023/07/13 09:57:22;;;;;;;11.50;8.50;;;;;;;-141.97;27.33;47088.56;5089085;28;20258;-78
2023/07/13 09:59:51;;;;;;;11.30;8.32;;;;;;;-141.97;27.45;47115.47;5097261;28;20236;-78
2023/07/13 10:02:24;;;;;;;11.13;8.27;;;;;;;-141.97;27.32;47188.50;5108810;28;20601;-78
2023/07/13 10:05:00;;;;;;;9.98;8.07;;;;;;;-141.97;27.38;47092.41;5108735;28;20277;-78
2023/07/13 10:07:26;;;;;;;9.90;8.25;;;;;;;-141.97;27.23;47102.03;5110164;28;20674;-77
2023/07/13 10:09:55;;;;;;;9.27;7.90;;;;;;;-141.97;27.32;47409.53;5088708;28;20472;-77
2023/07/13 10:12:24;;;;;;;9.27;8.20;;;;;;;-141.97;26.73;47111.63;5088659;28;20727;-77
2023/07/13 10:14:53;;;;;;;9.38;8.25;;;;;;;-141.97;26.74;47096.25;5091753;28;20663;-78
2023/07/13 10:17:25;;;;;;;9.45;7.88;;;;;;;-141.97;26.92;47088.56;5094640;28;20196;-78
2023/07/13 10:19:51;;;;;;;10.15;8.93;;;;;;;-141.97;26.93;47103.94;5089347;28;20183;-78
2023/07/13 10:22:38;;;;;;;9.52;8.60;;;;;;;-141.97;27.02;47080.88;5089608;28;20635;-78
2023/07/13 10:25:14;;;;;;;9.52;8.13;;;;;;;-141.97;26.61;47094.34;5089913;28;20238;-78
2023/07/13 10:27:40;;;;;;;12.18;8.43;;;;;;;-141.97;26.74;47042.44;5089535;28;20210;-78
2023/07/13 10:30:19;;;;;;;10.68;7.90;;;;;;;-141.97;26.52;47086.66;5089713;28;20569;-77
2023/07/13 10:32:47;;;;;;;11.73;8.20;;;;;;;-141.97;26.84;47103.94;5088567;28;20264;-78
2023/07/13 10:35:15;;;;;;;9.13;8.23;;;;;;;-141.97;26.97;47069.34;5088901;28;20188;-77
2023/07/13 10:38:15;;;;;;;10.23;8.60;;;;;;;-141.97;27.08;47127.00;5088877;28;20253;-78
2023/07/13 10:40:54;;;;;;;9.75;8.40;;;;;;;-141.97;27.24;47109.72;5063557;28;20243;-78
2023/07/13 10:43:26;;;;;;;14.07;8.43;;;;;;;-141.97;26.83;47084.72;5046722;28;20235;-78
2023/07/13 10:45:54;;;;;;;10.77;8.20;;;;;;;-141.97;26.73;47075.13;5059656;28;20272;-78
2023/07/13 10:48:22;;;;;;;10.90;8.07;;;;;;;-141.97;26.83;47065.50;5065090;28;20195;-78
2023/07/13 10:50:52;;;;;;;9.82;7.90;;;;;;;-141.97;27.03;47100.09;5043570;28;20238;-78
2023/07/13 10:53:32;;;;;;;12.38;7.57;;;;;;;-141.97;26.21;47084.72;5071254;28;20748;-78
2023/07/13 10:56:19;;;;;;;8.82;7.70;;;;;;;-141.97;26.26;47063.59;5069510;28;20731;-78
2023/07/13 10:58:45;;;;;;;10.90;7.07;;;;;;;-141.97;25.35;47019.38;5071136;28;20196;-84
2023/07/13 11:01:18;;;;;;;8.38;6.88;;;;;;;-141.97;25.79;46992.47;5054356;28;20216;-84
2023/07/13 11:03:43;;;;;;;9.90;7.45;;;;;;;-141.97;25.85;47073.19;5071832;28;20200;-84